Time;durP1;ratioP1;P1;durP2;ratioP2;P2;SDS_P1;SDS_P2;PMS_P1;PMS_P2;Temp;Humidity;BMP_temperature;BMP_pressure;BME280_temperature;BME280_humidity;BME280_pressure;Samples;Min_cycle;Max_cycle;Signal;HPM_P1;HPM_P2
2023/04/30 00:00:49;;;;;;;40.10;8.53;;;17.70;56.30;;;;;;5109164;28;20216;-91
2023/04/30 00:03:19;;;;;;;30.10;7.17;;;17.70;56.30;;;;;;5096043;28;20262;-92
2023/04/30 00:05:50;;;;;;;32.33;7.70;;;17.70;56.30;;;;;;5089421;28;20659;-92
2023/04/30 00:08:22;;;;;;;37.90;8.07;;;17.60;56.20;;;;;;5089487;28;20204;-91
2023/04/30 00:10:50;;;;;;;37.27;7.80;;;17.70;56.30;;;;;;5089388;28;20251;-91
2023/04/30 00:13:21;;;;;;;26.47;7.47;;;17.70;56.30;;;;;;5088848;28;20715;-92
2023/04/30 00:15:48;;;;;;;37.60;8.47;;;17.60;56.30;;;;;;5091896;28;20312;-90
2023/04/30 00:18:15;;;;;;;33.73;7.77;;;17.60;56.30;;;;;;5109100;28;20681;-92
2023/04/30 00:20:42;;;;;;;37.57;8.33;;;17.60;56.20;;;;;;5097843;28;20223;-92
2023/04/30 00:23:10;;;;;;;34.73;7.73;;;17.50;56.20;;;;;;5107392;28;20201;-91
2023/04/30 00:25:36;;;;;;;24.73;7.33;;;17.50;56.20;;;;;;5109387;28;20848;-91
2023/04/30 00:28:04;;;;;;;59.93;10.57;;;17.50;56.20;;;;;;5105058;28;20216;-91
2023/04/30 00:30:32;;;;;;;29.80;7.63;;;17.50;56.20;;;;;;5108204;28;20318;-92
2023/04/30 00:32:59;;;;;;;29.03;8.10;;;17.50;56.20;;;;;;5091338;28;20284;-91
2023/04/30 00:35:30;;;;;;;43.77;9.00;;;17.50;56.20;;;;;;5088439;28;20605;-91
2023/04/30 00:37:56;;;;;;;32.97;8.37;;;17.40;56.10;;;;;;5107370;28;20338;-92
2023/04/30 00:40:23;;;;;;;32.80;8.00;;;17.40;56.20;;;;;;5108325;28;20291;-93
2023/04/30 00:42:51;;;;;;;27.53;7.77;;;17.40;56.20;;;;;;5106990;28;20244;-92
2023/04/30 00:45:20;;;;;;;39.30;8.43;;;17.40;56.10;;;;;;5099996;28;20214;-92
2023/04/30 00:47:50;;;;;;;25.80;7.70;;;17.40;56.20;;;;;;5089045;28;20188;-92
2023/04/30 00:50:17;;;;;;;53.43;9.13;;;17.30;56.10;;;;;;5106728;28;20211;-92
2023/04/30 00:52:44;;;;;;;33.20;7.93;;;17.30;56.10;;;;;;5106394;28;20205;-92
2023/04/30 00:55:12;;;;;;;31.77;7.77;;;17.30;56.10;;;;;;5106947;28;20715;-91
2023/04/30 00:57:41;;;;;;;35.13;8.50;;;17.30;56.10;;;;;;5102464;28;20195;-92
2023/04/30 01:00:10;;;;;;;40.60;8.47;;;17.20;56.00;;;;;;5108184;28;20297;-92
2023/04/30 01:02:37;;;;;;;41.30;8.73;;;17.20;56.10;;;;;;5107112;28;20211;-92
2023/04/30 01:05:07;;;;;;;45.53;9.23;;;17.20;56.00;;;;;;5110956;28;20672;-92
2023/04/30 01:07:35;;;;;;;28.30;7.53;;;17.20;56.00;;;;;;5112019;28;20205;-92
2023/04/30 01:10:02;;;;;;;33.03;7.90;;;17.20;56.00;;;;;;5113194;28;20759;-92
2023/04/30 01:12:37;;;;;;;28.77;7.43;;;17.20;56.10;;;;;;5108004;28;20201;-93
2023/04/30 01:15:10;;;;;;;29.90;8.13;;;17.10;56.00;;;;;;5103818;28;20334;-92
2023/04/30 01:17:41;;;;;;;27.10;7.57;;;17.10;56.00;;;;;;5110233;28;20288;-92
2023/04/30 01:20:11;;;;;;;34.77;8.57;;;17.10;56.00;;;;;;5094771;28;20243;-92
2023/04/30 01:22:50;;;;;;;32.97;8.00;;;17.10;56.00;;;;;;5097617;28;20275;-92
2023/04/30 01:25:35;;;;;;;29.83;8.00;;;17.00;55.90;;;;;;5102545;28;20205;-92
2023/04/30 01:28:06;;;;;;;27.13;7.20;;;17.10;56.60;;;;;;5109975;28;20300;-92
2023/04/30 01:30:35;;;;;;;31.97;7.60;;;17.10;56.00;;;;;;5099734;28;20223;-92
2023/04/30 01:33:02;;;;;;;35.20;8.27;;;17.00;56.00;;;;;;5107112;28;20294;-92
2023/04/30 01:35:50;;;;;;;34.37;8.23;;;17.00;56.00;;;;;;5112184;28;20320;-92
2023/04/30 01:38:28;;;;;;;44.87;8.83;;;17.00;55.90;;;;;;5093861;28;20318;-92
2023/04/30 01:41:05;;;;;;;34.17;8.20;;;16.90;55.90;;;;;;5109525;28;20560;-92
2023/04/30 01:43:44;;;;;;;35.97;8.87;;;16.90;55.90;;;;;;5104348;28;20213;-91
2023/04/30 01:46:21;;;;;;;27.67;8.40;;;16.90;55.90;;;;;;5111049;28;20628;-92
2023/04/30 01:48:54;;;;;;;41.80;9.17;;;16.90;55.90;;;;;;5111183;28;20291;-91
2023/04/30 01:51:30;;;;;;;35.53;8.60;;;16.80;55.90;;;;;;5101975;28;20296;-91
2023/04/30 01:54:03;;;;;;;31.73;7.87;;;16.80;55.90;;;;;;5108637;28;20290;-91
2023/04/30 01:56:36;;;;;;;35.90;9.07;;;16.80;55.90;;;;;;5108431;27;20249;-90
2023/04/30 01:59:05;;;;;;;52.30;9.53;;;16.80;55.90;;;;;;5099971;28;20536;-91
2023/04/30 02:01:33;;;;;;;31.70;8.10;;;16.80;56.00;;;;;;5112052;28;20221;-91
2023/04/30 02:04:00;;;;;;;36.87;8.37;;;16.80;55.90;;;;;;5098614;28;20306;-91
2023/04/30 02:06:28;;;;;;;31.97;8.27;;;16.80;56.00;;;;;;5091260;28;20217;-92
2023/04/30 02:09:01;;;;;;;34.50;8.90;;;16.70;55.90;;;;;;5095542;28;20740;-91
2023/04/30 02:11:28;;;;;;;29.10;7.87;;;16.70;55.90;;;;;;5111788;28;20200;-91
2023/04/30 02:13:55;;;;;;;30.23;8.20;;;16.70;55.90;;;;;;5111297;28;20213;-91
2023/04/30 02:16:24;;;;;;;33.00;8.60;;;16.70;55.90;;;;;;5110581;27;20240;-91
2023/04/30 02:18:51;;;;;;;48.47;10.03;;;16.70;55.90;;;;;;5110524;28;20269;-90
2023/04/30 02:21:18;;;;;;;36.37;9.27;;;16.60;55.80;;;;;;5111573;28;20212;-92
2023/04/30 02:23:45;;;;;;;43.70;9.83;;;16.60;55.80;;;;;;5111738;28;20232;-92
2023/04/30 02:26:12;;;;;;;41.80;9.20;;;16.60;55.80;;;;;;5112953;28;20214;-92
2023/04/30 02:28:39;;;;;;;29.30;8.57;;;16.60;55.80;;;;;;5119685;28;20237;-92
2023/04/30 02:31:07;;;;;;;25.90;8.07;;;16.60;55.80;;;;;;5102196;28;20289;-92
2023/04/30 02:33:35;;;;;;;33.03;7.87;;;16.50;55.70;;;;;;5095606;28;20293;-93
2023/04/30 02:36:02;;;;;;;28.87;7.60;;;16.60;55.80;;;;;;5107190;28;20671;-92
2023/04/30 02:38:29;;;;;;;30.57;8.43;;;16.50;55.70;;;;;;5111344;28;20231;-91
2023/04/30 02:40:56;;;;;;;34.30;8.70;;;16.50;55.70;;;;;;5109531;28;20242;-91
2023/04/30 02:43:25;;;;;;;24.97;8.27;;;16.50;55.70;;;;;;5106532;27;20282;-91
2023/04/30 02:45:52;;;;;;;34.53;9.23;;;16.50;55.80;;;;;;5091459;28;20286;-91
2023/04/30 02:48:19;;;;;;;48.87;9.77;;;16.50;55.70;;;;;;5093474;28;20210;-93
2023/04/30 02:50:48;;;;;;;32.17;8.43;;;16.40;55.60;;;;;;5110813;28;20206;-92
2023/04/30 02:53:15;;;;;;;36.27;8.10;;;16.50;55.70;;;;;;5110453;27;20205;-92
2023/04/30 02:55:42;;;;;;;30.53;8.13;;;16.40;55.60;;;;;;5108838;28;20226;-92
2023/04/30 02:58:09;;;;;;;34.67;9.00;;;16.40;55.60;;;;;;5103135;28;20834;-91
2023/04/30 03:00:36;;;;;;;38.77;9.10;;;16.40;55.60;;;;;;5096062;28;20242;-91
2023/04/30 03:03:03;;;;;;;32.17;8.73;;;16.40;55.60;;;;;;5092536;28;20262;-92
2023/04/30 03:05:30;;;;;;;39.97;9.00;;;16.30;55.60;;;;;;5111340;28;20293;-92
2023/04/30 03:07:59;;;;;;;34.33;8.83;;;16.30;55.60;;;;;;5110889;28;20627;-92
2023/04/30 03:10:26;;;;;;;31.47;9.03;;;16.30;55.60;;;;;;5090968;28;20197;-93
2023/04/30 03:12:53;;;;;;;29.20;8.03;;;16.30;55.60;;;;;;5097883;28;20287;-92
2023/04/30 03:15:20;;;;;;;31.97;8.83;;;16.30;55.60;;;;;;5110100;28;20192;-91
2023/04/30 03:17:47;;;;;;;28.77;8.37;;;16.30;55.60;;;;;;5110494;28;20248;-92
2023/04/30 03:20:14;;;;;;;34.47;8.87;;;16.30;55.60;;;;;;5109132;28;20573;-92
2023/04/30 03:22:42;;;;;;;32.27;8.40;;;16.20;55.50;;;;;;5109531;28;20308;-91
2023/04/30 03:25:11;;;;;;;37.13;8.73;;;16.20;55.50;;;;;;5090259;28;20201;-91
2023/04/30 03:27:38;;;;;;;46.97;9.73;;;16.20;55.50;;;;;;5104656;28;20229;-91
2023/04/30 03:30:07;;;;;;;37.83;9.33;;;16.20;55.50;;;;;;5109245;28;20192;-91
2023/04/30 03:32:34;;;;;;;33.93;9.03;;;16.20;55.50;;;;;;5109338;28;20199;-91
2023/04/30 03:35:02;;;;;;;35.00;8.63;;;16.10;55.40;;;;;;5108556;28;20204;-92
2023/04/30 03:37:32;;;;;;;34.30;8.77;;;16.20;55.50;;;;;;5101494;28;20233;-92
2023/04/30 03:40:00;;;;;;;41.67;9.47;;;16.10;55.40;;;;;;5100227;28;20205;-92
2023/04/30 03:42:28;;;;;;;31.03;8.53;;;16.10;55.50;;;;;;5102207;27;20266;-92
2023/04/30 03:44:55;;;;;;;32.43;9.23;;;16.10;55.50;;;;;;5091791;28;20200;-92
2023/04/30 03:47:22;;;;;;;31.50;8.67;;;16.10;55.50;;;;;;5110131;28;20293;-92
2023/04/30 03:49:53;;;;;;;36.43;9.10;;;16.10;55.50;;;;;;5110332;28;20789;-91
2023/04/30 03:52:21;;;;;;;29.43;8.47;;;16.10;55.60;;;;;;5107466;28;20199;-91
2023/04/30 03:54:47;;;;;;;47.57;10.00;;;16.00;55.50;;;;;;5102964;28;20209;-91
2023/04/30 03:57:15;;;;;;;35.70;9.23;;;16.00;55.50;;;;;;5089132;28;20788;-91
2023/04/30 03:59:43;;;;;;;38.37;9.40;;;16.00;55.50;;;;;;5097803;28;21006;-93
2023/04/30 04:02:11;;;;;;;40.03;9.63;;;16.00;55.50;;;;;;5108263;27;20301;-92
2023/04/30 04:04:38;;;;;;;32.87;8.97;;;16.00;55.50;;;;;;5109338;28;20302;-92
2023/04/30 04:07:06;;;;;;;33.00;8.67;;;16.00;55.50;;;;;;5098373;28;20263;-91
2023/04/30 04:09:33;;;;;;;60.17;11.37;;;15.90;55.40;;;;;;5109214;28;20567;-92
2023/04/30 04:12:01;;;;;;;35.50;9.53;;;15.90;55.40;;;;;;5110024;28;20285;-92
2023/04/30 04:14:28;;;;;;;36.50;9.40;;;15.90;56.00;;;;;;5109149;28;20204;-92
2023/04/30 04:16:58;;;;;;;30.67;8.70;;;15.90;55.40;;;;;;5103451;28;20772;-92
2023/04/30 04:19:25;;;;;;;32.27;8.70;;;15.90;55.40;;;;;;5103170;28;20939;-93
2023/04/30 04:21:53;;;;;;;25.33;8.07;;;15.90;55.40;;;;;;5109811;28;20306;-92
2023/04/30 04:24:20;;;;;;;35.47;9.57;;;15.80;55.90;;;;;;5105625;28;20214;-91
2023/04/30 04:26:47;;;;;;;38.90;9.67;;;15.80;55.90;;;;;;5088978;28;20692;-92
2023/04/30 04:29:14;;;;;;;31.40;9.20;;;15.80;55.30;;;;;;5089064;28;20291;-92
2023/04/30 04:31:41;;;;;;;35.90;9.43;;;15.80;55.30;;;;;;5109147;27;20291;-92
2023/04/30 04:34:10;;;;;;;33.90;9.27;;;15.80;55.30;;;;;;5129762;27;20205;-91
2023/04/30 04:36:37;;;;;;;49.73;10.90;;;15.80;55.30;;;;;;5123971;28;20256;-92
2023/04/30 04:39:06;;;;;;;39.33;9.93;;;15.80;55.30;;;;;;5101317;28;20205;-91
2023/04/30 04:41:35;;;;;;;52.53;11.00;;;15.80;55.40;;;;;;5105207;28;20555;-91
2023/04/30 04:44:02;;;;;;;42.23;10.87;;;15.70;55.30;;;;;;5107630;28;20275;-91
2023/04/30 04:46:30;;;;;;;45.97;10.07;;;15.70;55.30;;;;;;5108127;28;20210;-90
2023/04/30 04:48:57;;;;;;;48.57;10.27;;;15.70;55.90;;;;;;5108032;28;20314;-92
2023/04/30 04:51:25;;;;;;;37.07;10.13;;;15.70;55.30;;;;;;5103828;28;20204;-95
2023/04/30 04:53:52;;;;;;;39.53;9.97;;;15.70;55.30;;;;;;5101630;28;20689;-94
2023/04/30 04:56:19;;;;;;;34.43;9.23;;;15.70;55.30;;;;;;5098441;28;20242;-90
2023/04/30 04:58:47;;;;;;;47.43;10.03;;;15.70;55.30;;;;;;5104797;28;20291;-93
2023/04/30 05:01:14;;;;;;;32.30;8.90;;;15.60;55.30;;;;;;5109346;28;20722;-94
2023/04/30 05:03:41;;;;;;;41.10;9.93;;;15.60;55.30;;;;;;5108405;28;20227;-92
2023/04/30 05:06:08;;;;;;;44.63;10.60;;;15.60;55.30;;;;;;5095703;28;20302;-93
2023/04/30 05:08:37;;;;;;;34.30;9.37;;;15.60;55.30;;;;;;5105779;28;20693;-93
2023/04/30 05:11:04;;;;;;;33.10;9.37;;;15.60;55.30;;;;;;5101323;28;20215;-92
2023/04/30 05:13:31;;;;;;;36.33;10.37;;;15.50;55.30;;;;;;5107388;28;20201;-91
2023/04/30 05:15:58;;;;;;;40.97;10.63;;;15.50;55.30;;;;;;5107198;28;20291;-91
2023/04/30 05:18:25;;;;;;;44.10;11.27;;;15.50;55.30;;;;;;5091518;28;20204;-91
2023/04/30 05:20:52;;;;;;;40.93;10.50;;;15.50;55.30;;;;;;5108066;28;20282;-91
2023/04/30 05:23:19;;;;;;;49.43;11.03;;;15.50;55.30;;;;;;5105464;28;20317;-89
2023/04/30 05:25:52;;;;;;;45.80;10.50;;;15.50;55.30;;;;;;5106657;28;20287;-92
2023/04/30 05:28:18;;;;;;;35.93;9.70;;;15.50;55.30;;;;;;5107666;28;20214;-91
2023/04/30 05:30:45;;;;;;;42.77;10.87;;;15.50;55.40;;;;;;5096030;28;20203;-92
2023/04/30 05:33:12;;;;;;;27.90;9.03;;;15.40;55.30;;;;;;5088614;28;20282;-91
2023/04/30 05:35:39;;;;;;;42.03;9.93;;;15.40;55.30;;;;;;5099446;28;20195;-92
2023/04/30 05:38:06;;;;;;;37.07;10.27;;;15.40;55.30;;;;;;5108464;28;20770;-94
2023/04/30 05:40:33;;;;;;;49.80;11.27;;;15.40;55.40;;;;;;5103270;28;20256;-93
2023/04/30 05:43:02;;;;;;;68.90;12.77;;;15.40;55.40;;;;;;5095700;28;20298;-91
2023/04/30 05:45:29;;;;;;;40.53;9.90;;;15.40;55.40;;;;;;5107694;28;20250;-92
2023/04/30 05:47:56;;;;;;;34.00;10.13;;;15.40;55.40;;;;;;5108600;28;20198;-93
2023/04/30 05:50:23;;;;;;;39.37;10.77;;;15.40;55.40;;;;;;5108984;28;20222;-93
2023/04/30 05:52:50;;;;;;;53.23;11.60;;;15.40;55.40;;;;;;5107146;28;20281;-92
2023/04/30 05:55:17;;;;;;;34.83;10.03;;;15.40;55.40;;;;;;5098750;27;20526;-92
2023/04/30 05:57:44;;;;;;;33.77;10.20;;;15.40;55.40;;;;;;5097388;28;20255;-92
2023/04/30 06:00:14;;;;;;;42.93;10.63;;;15.40;55.40;;;;;;5110428;28;20310;-92
2023/04/30 06:02:41;;;;;;;27.43;9.43;;;15.40;55.40;;;;;;5114222;28;20192;-92
2023/04/30 06:05:09;;;;;;;36.83;10.23;;;15.40;55.50;;;;;;5119240;27;20250;-92
2023/04/30 06:07:35;;;;;;;37.20;9.87;;;15.40;55.50;;;;;;5108826;28;20203;-92
2023/04/30 06:10:03;;;;;;;47.80;10.90;;;15.40;55.50;;;;;;5111190;28;20209;-91
2023/04/30 06:12:31;;;;;;;36.37;10.27;;;15.40;55.50;;;;;;5112416;28;20511;-92
2023/04/30 06:14:58;;;;;;;39.57;9.53;;;15.40;55.50;;;;;;5112716;28;20206;-93
2023/04/30 06:17:27;;;;;;;38.10;10.37;;;15.40;55.60;;;;;;5108118;28;20222;-92
2023/04/30 06:19:57;;;;;;;35.53;9.30;;;15.40;55.50;;;;;;5112520;28;20307;-94
2023/04/30 06:22:24;;;;;;;30.97;9.60;;;15.40;55.50;;;;;;5112666;28;20202;-92
2023/04/30 06:24:51;;;;;;;25.80;9.37;;;15.40;55.50;;;;;;5096235;28;20200;-94
2023/04/30 06:27:18;;;;;;;28.77;9.17;;;15.40;55.60;;;;;;5099394;28;20275;-90
2023/04/30 06:29:45;;;;;;;26.50;9.27;;;15.40;55.60;;;;;;5110085;28;20685;-91
2023/04/30 06:32:12;;;;;;;44.83;10.63;;;15.40;55.60;;;;;;5099028;28;20274;-94
2023/04/30 06:34:41;;;;;;;28.97;9.80;;;15.40;55.60;;;;;;5111706;28;20241;-93
2023/04/30 06:37:07;;;;;;;45.80;10.83;;;15.40;55.60;;;;;;5110379;28;20764;-93
2023/04/30 06:39:34;;;;;;;56.83;11.70;;;15.40;55.60;;;;;;5109382;28;20291;-93
2023/04/30 06:42:02;;;;;;;36.63;10.57;;;15.40;55.60;;;;;;5111474;27;20208;-94
2023/04/30 06:44:29;;;;;;;31.70;10.03;;;15.40;55.60;;;;;;5106102;28;20236;-93
2023/04/30 06:46:57;;;;;;;32.27;9.73;;;15.40;55.60;;;;;;5105405;28;20203;-94
2023/04/30 06:49:24;;;;;;;29.97;9.27;;;15.40;55.60;;;;;;5095880;27;20298;-95
2023/04/30 06:51:53;;;;;;;33.67;10.13;;;15.40;55.60;;;;;;5107038;27;20232;-95
2023/04/30 06:54:21;;;;;;;36.33;10.47;;;15.40;55.60;;;;;;5111470;27;20222;-94
2023/04/30 06:56:48;;;;;;;40.67;10.87;;;15.40;55.60;;;;;;5110961;27;20211;-93
2023/04/30 06:59:18;;;;;;;43.17;10.77;;;15.40;55.70;;;;;;5107556;28;20242;-95
2023/04/30 07:01:45;;;;;;;35.53;10.80;;;15.50;55.70;;;;;;5095596;28;20752;-96
2023/04/30 07:04:12;;;;;;;35.27;11.03;;;15.50;55.80;;;;;;5090374;28;20729;-93
2023/04/30 07:06:39;;;;;;;31.17;10.13;;;15.50;55.80;;;;;;5099941;28;20246;-95
2023/04/30 07:09:07;;;;;;;37.13;10.57;;;15.50;55.80;;;;;;5100489;28;20296;-94
2023/04/30 07:11:34;;;;;;;37.57;11.60;;;15.50;55.80;;;;;;5102182;28;20561;-95
2023/04/30 07:14:02;;;;;;;36.20;10.63;;;15.50;55.80;;;;;;5095890;28;20303;-96
2023/04/30 07:16:29;;;;;;;46.20;12.43;;;15.50;55.80;;;;;;5103014;28;20281;-92
2023/04/30 07:18:58;;;;;;;38.80;11.87;;;15.50;55.80;;;;;;5094704;28;20225;-95
2023/04/30 07:21:26;;;;;;;37.67;10.97;;;15.50;55.80;;;;;;5106531;28;20652;-92
2023/04/30 07:23:53;;;;;;;32.37;10.93;;;15.50;55.80;;;;;;5111191;28;20204;-96
2023/04/30 07:26:23;;;;;;;46.93;12.93;;;15.60;55.90;;;;;;5101298;28;20589;-94
2023/04/30 07:28:52;;;;;;;38.87;12.50;;;15.50;55.80;;;;;;5097214;28;20222;-94
2023/04/30 07:31:19;;;;;;;37.80;11.87;;;15.60;55.90;;;;;;5107544;27;20269;-95
2023/04/30 07:33:47;;;;;;;42.23;11.67;;;15.60;55.90;;;;;;5096259;28;20199;-93
2023/04/30 07:36:15;;;;;;;50.60;12.63;;;15.60;55.90;;;;;;5107265;28;20210;-94
2023/04/30 07:38:42;;;;;;;36.20;11.50;;;15.60;55.90;;;;;;5109995;28;20222;-95
2023/04/30 07:41:09;;;;;;;43.57;11.63;;;15.60;55.90;;;;;;5110425;28;21025;-94
2023/04/30 07:43:37;;;;;;;63.50;14.13;;;15.60;55.90;;;;;;5108648;28;20194;-95
2023/04/30 07:46:05;;;;;;;52.73;13.40;;;15.60;55.90;;;;;;5098241;27;20579;-95
2023/04/30 07:48:32;;;;;;;41.20;12.83;;;15.70;56.00;;;;;;5091975;28;20235;-92
2023/04/30 07:50:59;;;;;;;45.97;12.77;;;15.70;56.00;;;;;;5110707;28;20463;-95
2023/04/30 07:53:26;;;;;;;40.27;12.47;;;15.70;56.00;;;;;;5104866;28;20305;-94
2023/04/30 07:55:53;;;;;;;34.33;12.43;;;15.70;56.00;;;;;;5095851;28;20658;-95
2023/04/30 07:58:20;;;;;;;34.47;12.23;;;15.70;56.00;;;;;;5098267;28;20282;-95
2023/04/30 08:00:48;;;;;;;37.30;11.80;;;15.70;56.00;;;;;;5106836;28;20194;-96
2023/04/30 08:03:15;;;;;;;34.37;11.77;;;15.70;56.00;;;;;;5101877;28;21018;-95
2023/04/30 08:05:42;;;;;;;40.67;11.87;;;15.70;56.00;;;;;;5098698;28;20824;-93
2023/04/30 08:08:09;;;;;;;38.23;12.53;;;15.80;56.10;;;;;;5113279;28;20234;-95
2023/04/30 08:10:36;;;;;;;43.90;12.73;;;15.80;56.10;;;;;;5120633;27;20202;-94
2023/04/30 08:13:05;;;;;;;31.20;12.57;;;15.80;56.10;;;;;;5096185;28;20231;-94
2023/04/30 08:15:34;;;;;;;36.83;12.07;;;15.90;56.20;;;;;;5105352;27;20634;-95
2023/04/30 08:18:04;;;;;;;34.73;12.10;;;15.90;56.10;;;;;;5118264;28;20241;-94
2023/04/30 08:20:31;;;;;;;31.63;11.17;;;15.90;56.20;;;;;;5117724;28;20273;-95
2023/04/30 08:22:59;;;;;;;31.97;11.53;;;15.90;56.10;;;;;;5117645;28;20581;-95
2023/04/30 08:25:26;;;;;;;33.33;12.30;;;15.90;56.10;;;;;;5117604;28;20966;-96
2023/04/30 08:27:54;;;;;;;31.67;11.83;;;15.90;56.20;;;;;;5119338;28;20220;-96
2023/04/30 08:30:21;;;;;;;52.93;13.43;;;16.00;56.20;;;;;;5112854;28;20219;-94
2023/04/30 08:32:49;;;;;;;45.50;12.60;;;16.00;56.20;;;;;;5110576;28;20283;-94
2023/04/30 08:35:40;;;;;;;27.33;11.97;;;16.00;56.20;;;;;;5121155;28;20215;-96
2023/04/30 08:38:07;;;;;;;37.20;11.70;;;16.00;56.30;;;;;;5118422;28;20252;-95
2023/04/30 08:40:37;;;;;;;34.43;11.80;;;16.10;56.30;;;;;;5104058;28;20211;-94
2023/04/30 08:43:07;;;;;;;30.90;11.37;;;16.10;56.30;;;;;;5115588;28;20238;-95
2023/04/30 08:45:35;;;;;;;32.57;11.97;;;16.10;56.30;;;;;;5116837;28;20786;-96
2023/04/30 08:48:10;;;;;;;37.33;11.57;;;16.10;56.30;;;;;;5106586;28;20221;-94
2023/04/30 08:50:39;;;;;;;28.63;11.20;;;16.20;56.50;;;;;;5115489;28;20687;-96
2023/04/30 08:53:11;;;;;;;32.87;11.33;;;16.20;56.50;;;;;;5121837;28;20233;-96
2023/04/30 08:55:41;;;;;;;24.40;10.80;;;16.30;56.60;;;;;;5117685;28;20206;-96
2023/04/30 08:58:09;;;;;;;36.87;12.33;;;16.30;56.60;;;;;;5111639;28;20219;-96
2023/04/30 09:00:39;;;;;;;27.73;11.63;;;16.30;56.60;;;;;;5111674;28;20227;-95
2023/04/30 09:03:07;;;;;;;32.23;11.20;;;16.30;56.60;;;;;;5122622;28;20288;-96
2023/04/30 09:05:34;;;;;;;36.13;11.30;;;16.40;56.60;;;;;;5117394;28;20234;-95
2023/04/30 09:08:07;;;;;;;28.90;10.67;;;16.40;56.60;;;;;;5111700;28;20205;-94
2023/04/30 09:10:36;;;;;;;33.00;10.77;;;16.50;56.80;;;;;;5108570;28;20201;-96
2023/04/30 09:13:04;;;;;;;49.83;12.43;;;16.50;56.80;;;;;;5110220;28;20197;-95
2023/04/30 09:15:33;;;;;;;36.03;12.13;;;16.50;56.80;;;;;;5092038;28;20528;-96
2023/04/30 09:18:11;;;;;;;37.50;11.33;;;16.50;56.80;;;;;;5094541;28;20304;-95
2023/04/30 09:20:39;;;;;;;34.53;11.00;;;16.60;56.90;;;;;;5114235;28;20201;-95
2023/04/30 09:23:11;;;;;;;32.70;10.73;;;16.60;56.90;;;;;;5119008;28;20205;-96
2023/04/30 09:25:41;;;;;;;35.90;11.47;;;16.70;57.10;;;;;;5115085;28;20909;-96
2023/04/30 09:28:10;;;;;;;30.47;10.07;;;16.70;57.00;;;;;;5107649;27;20267;-94
2023/04/30 09:30:39;;;;;;;24.93;9.30;;;16.70;57.00;;;;;;5116851;27;20222;-96
2023/04/30 09:33:07;;;;;;;27.63;9.73;;;16.80;57.10;;;;;;5115211;28;20199;-95
2023/04/30 09:35:40;;;;;;;21.10;9.47;;;16.80;57.10;;;;;;5127301;28;20208;-96
2023/04/30 09:38:26;;;;;;;24.33;9.90;;;16.90;57.20;;;;;;5131875;28;20251;-96
2023/04/30 09:40:54;;;;;;;29.60;10.17;;;16.90;57.20;;;;;;5130752;28;20201;-93
2023/04/30 09:43:22;;;;;;;37.27;10.23;;;17.00;57.20;;;;;;5125579;28;20236;-95
2023/04/30 09:45:50;;;;;;;37.77;10.70;;;17.00;57.20;;;;;;5120501;27;20190;-95
2023/04/30 09:48:18;;;;;;;27.43;9.97;;;17.10;57.30;;;;;;5116527;28;20270;-95
2023/04/30 09:50:46;;;;;;;47.83;11.00;;;17.20;57.40;;;;;;5117063;28;20281;-94
2023/04/30 09:53:16;;;;;;;22.73;9.07;;;17.20;57.30;;;;;;5113243;28;20721;-96
2023/04/30 09:55:46;;;;;;;28.87;9.10;;;17.20;57.30;;;;;;5120165;28;20265;-96
2023/04/30 09:58:15;;;;;;;31.53;9.73;;;17.20;57.30;;;;;;5118322;27;20278;-96
2023/04/30 10:00:45;;;;;;;28.00;8.37;;;17.30;57.40;;;;;;5119811;27;20204;-96
2023/04/30 10:03:14;;;;;;;28.77;9.63;;;17.40;57.50;;;;;;5122719;27;20233;-96
2023/04/30 10:05:45;;;;;;;37.07;9.67;;;17.40;57.50;;;;;;5102110;28;20210;-96
2023/04/30 10:08:22;;;;;;;31.63;8.97;;;17.40;57.40;;;;;;5116098;27;20561;-96
2023/04/30 10:10:54;;;;;;;26.53;8.90;;;17.50;57.50;;;;;;5117077;28;20208;-95
2023/04/30 10:13:21;;;;;;;25.60;8.43;;;17.60;57.50;;;;;;5102098;28;20212;-95
2023/04/30 10:15:54;;;;;;;25.60;8.10;;;17.60;57.50;;;;;;5124322;28;20198;-96
2023/04/30 10:18:28;;;;;;;37.13;8.80;;;17.70;57.60;;;;;;5138931;27;20228;-95
2023/04/30 10:21:01;;;;;;;33.20;9.43;;;17.70;57.50;;;;;;5120179;28;20200;-95
2023/04/30 10:23:36;;;;;;;23.07;7.60;;;17.80;57.60;;;;;;5112587;28;20294;-95
2023/04/30 10:26:04;;;;;;;40.37;10.03;;;17.80;57.60;;;;;;5110297;28;20617;-94
2023/04/30 10:28:32;;;;;;;26.03;7.70;;;17.90;57.60;;;;;;5107179;27;20645;-96
2023/04/30 10:31:01;;;;;;;38.23;9.07;;;17.90;57.60;;;;;;5103932;28;20203;-96
2023/04/30 10:33:34;;;;;;;28.03;8.63;;;17.90;57.60;;;;;;5107525;28;20194;-96
2023/04/30 10:36:07;;;;;;;29.80;7.70;;;18.00;57.60;;;;;;5104241;28;20210;-93
2023/04/30 10:38:38;;;;;;;34.63;8.67;;;18.00;57.60;;;;;;5111870;27;20214;-95
2023/04/30 10:41:09;;;;;;;26.47;8.03;;;18.10;57.80;;;;;;5109415;28;20713;-93
2023/04/30 10:43:37;;;;;;;38.87;8.80;;;18.20;57.80;;;;;;5108019;27;20236;-95
2023/04/30 10:46:04;;;;;;;22.10;7.33;;;18.20;57.70;;;;;;5118837;28;20205;-96
2023/04/30 10:48:34;;;;;;;20.70;6.43;;;18.20;57.70;;;;;;5107370;27;20206;-95
2023/04/30 10:51:02;;;;;;;32.50;8.00;;;18.30;57.80;;;;;;5105882;28;20241;-93
2023/04/30 10:53:31;;;;;;;24.13;7.57;;;18.30;57.80;;;;;;5102474;27;20771;-94
2023/04/30 10:56:05;;;;;;;26.57;8.27;;;18.40;57.90;;;;;;5114393;28;20234;-92
2023/04/30 10:58:35;;;;;;;25.97;7.10;;;18.40;57.80;;;;;;5112628;28;20275;-96
2023/04/30 11:01:04;;;;;;;48.57;8.73;;;18.50;57.90;;;;;;5113899;28;20194;-95
2023/04/30 11:03:32;;;;;;;21.70;6.87;;;18.50;57.80;;;;;;5103700;27;20256;-92
2023/04/30 11:06:02;;;;;;;64.00;10.63;;;18.50;57.80;;;;;;5093742;28;20239;-95
2023/04/30 11:08:37;;;;;;;30.07;8.07;;;18.60;57.90;;;;;;5114653;28;20626;-95
2023/04/30 11:11:11;;;;;;;29.03;7.53;;;18.60;57.90;;;;;;5111838;28;20219;-93
2023/04/30 11:13:45;;;;;;;23.20;7.30;;;18.70;57.90;;;;;;5098270;28;20215;-95
2023/04/30 11:16:12;;;;;;;42.37;9.77;;;18.70;57.90;;;;;;5109371;28;20561;-94
2023/04/30 11:18:44;;;;;;;22.17;6.63;;;18.80;57.90;;;;;;5112302;27;20236;-96
2023/04/30 11:21:11;;;;;;;57.87;10.00;;;18.80;57.90;;;;;;5112332;27;20206;-94
2023/04/30 11:23:43;;;;;;;30.77;7.97;;;18.80;57.90;;;;;;5111151;27;20202;-96
2023/04/30 11:26:11;;;;;;;38.37;9.23;;;18.90;57.90;;;;;;5108629;28;20198;-94
2023/04/30 11:28:51;;;;;;;41.90;9.23;;;18.90;57.90;;;;;;5117291;27;20206;-94
2023/04/30 11:31:18;;;;;;;23.20;7.00;;;19.00;58.00;;;;;;5110404;27;20277;-95
2023/04/30 11:33:45;;;;;;;37.53;9.03;;;19.00;57.90;;;;;;5101352;28;20225;-96
2023/04/30 11:36:14;;;;;;;41.50;9.23;;;19.10;58.00;;;;;;5109713;28;20227;-95
2023/04/30 11:38:42;;;;;;;27.37;7.97;;;19.10;58.00;;;;;;5108002;27;20752;-93
2023/04/30 11:41:12;;;;;;;32.10;8.77;;;19.20;58.00;;;;;;5100747;28;20307;-95
2023/04/30 11:43:40;;;;;;;32.33;8.47;;;19.20;58.00;;;;;;5105690;28;20632;-94
2023/04/30 11:46:11;;;;;;;39.27;9.90;;;19.20;58.00;;;;;;5111191;28;20217;-96
2023/04/30 11:48:41;;;;;;;30.63;8.60;;;19.30;58.10;;;;;;5110247;28;20237;-94
2023/04/30 11:51:23;;;;;;;30.80;8.33;;;19.30;58.00;;;;;;5110681;28;20641;-95
2023/04/30 11:53:52;;;;;;;24.83;7.63;;;19.40;58.80;;;;;;5111871;27;20284;-91
2023/04/30 11:56:26;;;;;;;28.40;8.43;;;19.40;58.10;;;;;;5103911;27;20239;-94
2023/04/30 11:58:54;;;;;;;25.23;8.70;;;19.50;58.10;;;;;;5106608;28;20225;-93
2023/04/30 12:01:21;;;;;;;26.90;7.93;;;19.50;58.10;;;;;;5109963;28;20745;-94
2023/04/30 12:03:51;;;;;;;30.20;9.03;;;19.60;58.20;;;;;;5106031;28;20203;-94
2023/04/30 12:06:22;;;;;;;36.37;9.27;;;19.60;58.20;;;;;;5100034;28;20612;-94
2023/04/30 12:08:50;;;;;;;31.40;8.33;;;19.70;58.30;;;;;;5108820;28;20570;-91
2023/04/30 12:11:24;;;;;;;18.97;7.53;;;19.70;58.20;;;;;;5109668;28;21011;-93
2023/04/30 12:13:52;;;;;;;27.93;9.27;;;19.70;58.20;;;;;;5104018;28;20232;-93
2023/04/30 12:16:19;;;;;;;28.30;8.47;;;19.70;58.20;;;;;;5101774;28;20306;-93
2023/04/30 12:18:46;;;;;;;33.73;9.27;;;19.80;58.20;;;;;;5108310;28;20700;-94
2023/04/30 12:21:13;;;;;;;19.67;7.73;;;19.80;58.20;;;;;;5108485;28;20746;-91
2023/04/30 12:23:40;;;;;;;34.47;9.23;;;19.90;58.20;;;;;;5108660;28;20324;-93
2023/04/30 12:26:07;;;;;;;36.13;9.17;;;19.90;58.20;;;;;;5108810;28;20675;-95
2023/04/30 12:28:36;;;;;;;29.17;8.27;;;20.00;58.30;;;;;;5091363;28;20290;-93
2023/04/30 12:31:05;;;;;;;21.00;7.37;;;20.00;58.20;;;;;;5089335;28;20207;-92
2023/04/30 12:33:32;;;;;;;30.83;8.87;;;20.00;58.20;;;;;;5106829;28;20217;-93
2023/04/30 12:36:00;;;;;;;50.17;10.50;;;20.10;58.20;;;;;;5096776;28;20309;-94
2023/04/30 12:38:27;;;;;;;47.77;9.53;;;20.10;58.30;;;;;;5107207;28;20263;-95
2023/04/30 12:40:54;;;;;;;32.03;8.77;;;20.10;58.20;;;;;;5108592;28;20666;-96